Anzahl Datensätze: 288
min. Temperatur: 15.9 °C
max. Temperatur: 29.3 °C
max. Windgeschwindigkeit: 22.7 km/h
Niederschlagsumme: 0.0 mm
| Datum |
Zeit |
Temp °C |
Feuchte % |
Taupunkt °C |
Luftdruck hPa |
Wind km/h |
Windrichtung |
Strahlung w/m² |
Niederschlag mm |
|---|---|---|---|---|---|---|---|---|---|
| 27.06.2021 | 00:04 | 18.8 | 84 | 16.0 | 1015.1 | 0.0 | NNO | 0 | 0.0 |
| 27.06.2021 | 00:08 | 18.8 | 84 | 16.0 | 1015.0 | 0.0 | NNO | 0 | 0.0 |
| 27.06.2021 | 00:14 | 18.7 | 84 | 15.9 | 1015.0 | 0.0 | NNO | 0 | 0.0 |
| 27.06.2021 | 00:18 | 18.6 | 84 | 15.8 | 1015.0 | 0.0 | NNO | 0 | 0.0 |
| 27.06.2021 | 00:24 | 18.6 | 84 | 15.8 | 1014.9 | 0.0 | NNO | 0 | 0.0 |
| 27.06.2021 | 00:28 | 18.4 | 85 | 15.8 | 1014.9 | 0.0 | NNO | 0 | 0.0 |
| 27.06.2021 | 00:34 | 18.3 | 85 | 15.7 | 1014.8 | 0.0 | NNO | 0 | 0.0 |
| 27.06.2021 | 00:38 | 18.2 | 85 | 15.6 | 1014.8 | 0.0 | NNO | 0 | 0.0 |
| 27.06.2021 | 00:44 | 18.1 | 86 | 15.7 | 1014.7 | 0.0 | NNO | 0 | 0.0 |
| 27.06.2021 | 00:48 | 17.9 | 87 | 15.7 | 1014.7 | 0.0 | NNO | 0 | 0.0 |
| 27.06.2021 | 00:54 | 17.8 | 87 | 15.6 | 1014.6 | 0.0 | NNO | 0 | 0.0 |
| 27.06.2021 | 00:58 | 17.7 | 88 | 15.7 | 1014.6 | 0.0 | NNO | 0 | 0.0 |
| 27.06.2021 | 01:04 | 17.6 | 88 | 15.6 | 1014.6 | 0.0 | N | 0 | 0.0 |
| 27.06.2021 | 01:08 | 17.6 | 88 | 15.6 | 1014.6 | 0.0 | NNW | 0 | 0.0 |
| 27.06.2021 | 01:14 | 17.6 | 87 | 15.4 | 1014.7 | 0.0 | NNW | 0 | 0.0 |
| 27.06.2021 | 01:18 | 17.6 | 88 | 15.6 | 1014.7 | 0.0 | NNW | 0 | 0.0 |
| 27.06.2021 | 01:24 | 17.4 | 88 | 15.4 | 1014.6 | 0.0 | NNW | 0 | 0.0 |
| 27.06.2021 | 01:28 | 17.4 | 88 | 15.4 | 1014.6 | 0.0 | NNW | 0 | 0.0 |
| 27.06.2021 | 01:34 | 17.4 | 88 | 15.4 | 1014.7 | 0.0 | NNW | 0 | 0.0 |
| 27.06.2021 | 01:38 | 17.3 | 89 | 15.5 | 1014.6 | 0.0 | NNW | 0 | 0.0 |
| 27.06.2021 | 01:44 | 17.2 | 89 | 15.4 | 1014.6 | 0.0 | NNW | 0 | 0.0 |
| 27.06.2021 | 01:48 | 17.2 | 89 | 15.4 | 1014.6 | 0.0 | N | 0 | 0.0 |
| 27.06.2021 | 01:54 | 17.1 | 89 | 15.3 | 1014.6 | 0.0 | N | 0 | 0.0 |
| 27.06.2021 | 01:58 | 17.0 | 90 | 15.3 | 1014.6 | 0.0 | N | 0 | 0.0 |
| 27.06.2021 | 02:04 | 16.9 | 90 | 15.2 | 1014.7 | 0.0 | N | 0 | 0.0 |
| 27.06.2021 | 02:08 | 16.9 | 90 | 15.2 | 1014.6 | 0.0 | N | 0 | 0.0 |
| 27.06.2021 | 02:14 | 16.7 | 91 | 15.2 | 1014.7 | 0.0 | N | 0 | 0.0 |
| 27.06.2021 | 02:18 | 16.7 | 91 | 15.2 | 1014.6 | 0.0 | N | 0 | 0.0 |
| 27.06.2021 | 02:24 | 16.7 | 91 | 15.2 | 1014.6 | 0.0 | N | 0 | 0.0 |
| 27.06.2021 | 02:28 | 16.7 | 90 | 15.1 | 1014.5 | 0.0 | N | 0 | 0.0 |
| 27.06.2021 | 02:34 | 16.7 | 91 | 15.2 | 1014.5 | 1.4 | N | 0 | 0.0 |
| 27.06.2021 | 02:38 | 16.6 | 91 | 15.1 | 1014.6 | 0.0 | N | 0 | 0.0 |
| 27.06.2021 | 02:44 | 16.7 | 90 | 15.1 | 1014.6 | 0.0 | N | 0 | 0.0 |
| 27.06.2021 | 02:48 | 16.7 | 90 | 15.1 | 1014.5 | 1.4 | N | 0 | 0.0 |
| 27.06.2021 | 02:54 | 16.7 | 90 | 15.1 | 1014.5 | 1.4 | N | 0 | 0.0 |
| 27.06.2021 | 02:58 | 16.7 | 90 | 15.1 | 1014.6 | 0.0 | N | 0 | 0.0 |
| 27.06.2021 | 03:04 | 16.7 | 90 | 15.1 | 1014.7 | 0.0 | N | 0 | 0.0 |
| 27.06.2021 | 03:08 | 16.6 | 90 | 15.0 | 1014.7 | 0.0 | N | 0 | 0.0 |
| 27.06.2021 | 03:14 | 16.4 | 91 | 14.9 | 1014.8 | 0.0 | N | 0 | 0.0 |
| 27.06.2021 | 03:18 | 16.4 | 91 | 14.9 | 1014.7 | 0.0 | N | 0 | 0.0 |
| 27.06.2021 | 03:24 | 16.4 | 91 | 14.9 | 1014.8 | 0.0 | NNW | 0 | 0.0 |
| 27.06.2021 | 03:28 | 16.3 | 91 | 14.8 | 1014.8 | 0.0 | N | 0 | 0.0 |
| 27.06.2021 | 03:34 | 16.3 | 92 | 15.0 | 1014.7 | 1.4 | N | 0 | 0.0 |
| 27.06.2021 | 03:38 | 16.3 | 91 | 14.8 | 1014.7 | 3.2 | N | 0 | 0.0 |
| 27.06.2021 | 03:44 | 16.3 | 91 | 14.8 | 1014.8 | 1.4 | N | 0 | 0.0 |
| 27.06.2021 | 03:48 | 16.3 | 91 | 14.8 | 1014.8 | 1.4 | N | 0 | 0.0 |
| 27.06.2021 | 03:54 | 16.2 | 91 | 14.7 | 1014.8 | 1.4 | N | 0 | 0.0 |
| 27.06.2021 | 03:58 | 16.3 | 91 | 14.8 | 1014.7 | 1.4 | N | 0 | 0.0 |
| 27.06.2021 | 04:04 | 16.3 | 91 | 14.8 | 1014.6 | 1.4 | N | 0 | 0.0 |
| 27.06.2021 | 04:08 | 16.4 | 91 | 14.9 | 1014.5 | 1.4 | N | 0 | 0.0 |
| 27.06.2021 | 04:14 | 16.3 | 91 | 14.8 | 1014.3 | 0.0 | N | 0 | 0.0 |
| 27.06.2021 | 04:18 | 16.3 | 91 | 14.8 | 1014.3 | 0.0 | N | 0 | 0.0 |
| 27.06.2021 | 04:24 | 16.3 | 91 | 14.8 | 1014.2 | 0.0 | NNO | 0 | 0.0 |
| 27.06.2021 | 04:28 | 16.3 | 91 | 14.8 | 1014.1 | 0.0 | N | 0 | 0.0 |
| 27.06.2021 | 04:34 | 16.2 | 91 | 14.7 | 1014.1 | 1.4 | N | 0 | 0.0 |
| 27.06.2021 | 04:38 | 16.3 | 91 | 14.8 | 1014.1 | 1.4 | NNO | 0 | 0.0 |
| 27.06.2021 | 04:44 | 16.3 | 91 | 14.8 | 1013.9 | 1.4 | N | 0 | 0.0 |
| 27.06.2021 | 04:48 | 16.3 | 91 | 14.8 | 1014.0 | 1.4 | N | 0 | 0.0 |
| 27.06.2021 | 04:54 | 16.3 | 91 | 14.8 | 1013.9 | 0.0 | N | 0 | 0.0 |
| 27.06.2021 | 04:58 | 16.2 | 91 | 14.7 | 1013.7 | 0.0 | N | 0 | 0.0 |
| 27.06.2021 | 05:04 | 16.2 | 91 | 14.7 | 1013.8 | 0.0 | N | 0 | 0.0 |
| 27.06.2021 | 05:08 | 16.2 | 91 | 14.7 | 1013.8 | 0.0 | N | 0 | 0.0 |
| 27.06.2021 | 05:14 | 16.1 | 91 | 14.6 | 1013.6 | 0.0 | NNO | 0 | 0.0 |
| 27.06.2021 | 05:18 | 16.0 | 92 | 14.7 | 1013.5 | 0.0 | NNO | 0 | 0.0 |
| 27.06.2021 | 05:24 | 16.0 | 92 | 14.7 | 1013.5 | 1.4 | N | 5 | 0.0 |
| 27.06.2021 | 05:28 | 16.0 | 92 | 14.7 | 1013.7 | 1.4 | NNW | 7 | 0.0 |
| 27.06.2021 | 05:34 | 15.9 | 92 | 14.6 | 1013.8 | 0.0 | NW | 11 | 0.0 |
| 27.06.2021 | 05:38 | 15.9 | 92 | 14.6 | 1013.9 | 0.0 | NNW | 11 | 0.0 |
| 27.06.2021 | 05:44 | 15.9 | 92 | 14.6 | 1013.9 | 0.0 | NNW | 14 | 0.0 |
| 27.06.2021 | 05:48 | 15.9 | 92 | 14.6 | 1014.0 | 0.0 | NNW | 16 | 0.0 |
| 27.06.2021 | 05:54 | 15.9 | 92 | 14.6 | 1014.0 | 0.0 | NNW | 25 | 0.0 |
| 27.06.2021 | 05:58 | 15.9 | 92 | 14.6 | 1014.0 | 0.0 | NNW | 28 | 0.0 |
| 27.06.2021 | 06:04 | 15.9 | 92 | 14.6 | 1013.9 | 0.0 | NNW | 28 | 0.0 |
| 27.06.2021 | 06:08 | 15.9 | 92 | 14.6 | 1013.9 | 0.0 | NNW | 30 | 0.0 |
| 27.06.2021 | 06:14 | 16.0 | 92 | 14.7 | 1014.0 | 0.0 | NNW | 32 | 0.0 |
| 27.06.2021 | 06:18 | 16.1 | 92 | 14.8 | 1014.0 | 1.4 | N | 33 | 0.0 |
| 27.06.2021 | 06:24 | 16.1 | 92 | 14.8 | 1014.0 | 0.0 | N | 46 | 0.0 |
| 27.06.2021 | 06:28 | 16.1 | 92 | 14.8 | 1013.9 | 0.0 | N | 56 | 0.0 |
| 27.06.2021 | 06:34 | 16.2 | 92 | 14.9 | 1013.9 | 0.0 | N | 58 | 0.0 |
| 27.06.2021 | 06:38 | 16.3 | 92 | 15.0 | 1013.8 | 0.0 | N | 58 | 0.0 |
| 27.06.2021 | 06:44 | 16.3 | 92 | 15.0 | 1013.8 | 0.0 | N | 56 | 0.0 |
| 27.06.2021 | 06:48 | 16.4 | 91 | 14.9 | 1013.8 | 0.0 | N | 58 | 0.0 |
| 27.06.2021 | 06:54 | 16.6 | 91 | 15.1 | 1013.9 | 1.4 | N | 62 | 0.0 |
| 27.06.2021 | 06:58 | 16.7 | 91 | 15.2 | 1013.9 | 1.4 | N | 70 | 0.0 |
| 27.06.2021 | 07:04 | 16.7 | 90 | 15.1 | 1013.9 | 1.4 | N | 56 | 0.0 |
| 27.06.2021 | 07:08 | 16.7 | 90 | 15.1 | 1013.9 | 1.4 | N | 51 | 0.0 |
| 27.06.2021 | 07:14 | 16.7 | 91 | 15.2 | 1013.9 | 0.0 | N | 70 | 0.0 |
| 27.06.2021 | 07:18 | 16.8 | 91 | 15.3 | 1013.9 | 0.0 | N | 77 | 0.0 |
| 27.06.2021 | 07:24 | 17.1 | 90 | 15.4 | 1013.7 | 0.0 | OSO | 98 | 0.0 |
| 27.06.2021 | 07:28 | 17.2 | 89 | 15.4 | 1013.6 | 1.4 | OSO | 95 | 0.0 |
| 27.06.2021 | 07:34 | 17.4 | 90 | 15.7 | 1013.5 | 4.7 | N | 90 | 0.0 |
| 27.06.2021 | 07:38 | 17.6 | 89 | 15.8 | 1013.6 | 4.7 | N | 88 | 0.0 |
| 27.06.2021 | 07:44 | 17.7 | 88 | 15.7 | 1013.6 | 3.2 | NNW | 79 | 0.0 |
| 27.06.2021 | 07:48 | 17.8 | 88 | 15.8 | 1013.6 | 3.2 | NNO | 83 | 0.0 |
| 27.06.2021 | 07:54 | 17.8 | 88 | 15.8 | 1013.6 | 1.4 | NNW | 134 | 0.0 |
| 27.06.2021 | 07:58 | 17.9 | 87 | 15.7 | 1013.7 | 1.4 | N | 214 | 0.0 |
| 27.06.2021 | 08:04 | 18.1 | 87 | 15.9 | 1013.8 | 1.4 | NNW | 269 | 0.0 |
| 27.06.2021 | 08:08 | 18.3 | 87 | 16.1 | 1013.7 | 0.0 | N | 283 | 0.0 |
| 27.06.2021 | 08:14 | 18.7 | 85 | 16.1 | 1013.6 | 1.4 | NNW | 374 | 0.0 |
| 27.06.2021 | 08:18 | 18.8 | 84 | 16.0 | 1013.7 | 3.2 | N | 295 | 0.0 |
| 27.06.2021 | 08:24 | 19.2 | 83 | 16.2 | 1013.6 | 4.7 | NNO | 424 | 0.0 |
| 27.06.2021 | 08:28 | 19.4 | 82 | 16.2 | 1013.6 | 4.7 | NNO | 399 | 0.0 |
| 27.06.2021 | 08:34 | 19.6 | 82 | 16.4 | 1013.6 | 3.2 | NNW | 200 | 0.0 |
| 27.06.2021 | 08:38 | 19.7 | 81 | 16.3 | 1013.5 | 3.2 | N | 385 | 0.0 |
| 27.06.2021 | 08:44 | 19.8 | 81 | 16.4 | 1013.5 | 4.7 | NO | 381 | 0.0 |
| 27.06.2021 | 08:48 | 20.0 | 81 | 16.6 | 1013.5 | 3.2 | NNO | 366 | 0.0 |
| 27.06.2021 | 08:54 | 20.3 | 81 | 16.9 | 1013.5 | 3.2 | NNW | 476 | 0.0 |
| 27.06.2021 | 08:58 | 20.6 | 78 | 16.6 | 1013.5 | 3.2 | NNW | 485 | 0.0 |
| 27.06.2021 | 09:04 | 20.9 | 77 | 16.7 | 1013.5 | 3.2 | NNO | 501 | 0.0 |
| 27.06.2021 | 09:08 | 21.1 | 79 | 17.3 | 1013.5 | 3.2 | NO | 504 | 0.0 |
| 27.06.2021 | 09:14 | 21.1 | 76 | 16.7 | 1013.5 | 3.2 | N | 504 | 0.0 |
| 27.06.2021 | 09:18 | 21.4 | 75 | 16.8 | 1013.5 | 1.4 | NO | 531 | 0.0 |
| 27.06.2021 | 09:24 | 21.7 | 76 | 17.3 | 1013.5 | 1.4 | N | 554 | 0.0 |
| 27.06.2021 | 09:28 | 21.9 | 74 | 17.1 | 1013.5 | 1.4 | NO | 570 | 0.0 |
| 27.06.2021 | 09:34 | 22.2 | 74 | 17.3 | 1013.5 | 1.4 | NNW | 555 | 0.0 |
| 27.06.2021 | 09:38 | 22.0 | 74 | 17.2 | 1013.5 | 1.4 | NNW | 272 | 0.0 |
| 27.06.2021 | 09:44 | 22.2 | 74 | 17.3 | 1013.5 | 1.4 | NNW | 599 | 0.0 |
| 27.06.2021 | 09:48 | 22.6 | 74 | 17.7 | 1013.5 | 1.4 | NNO | 606 | 0.0 |
| 27.06.2021 | 09:54 | 22.7 | 75 | 18.0 | 1013.4 | 1.4 | NNW | 622 | 0.0 |
| 27.06.2021 | 09:58 | 22.8 | 74 | 17.9 | 1013.4 | 3.2 | ONO | 635 | 0.0 |
| 27.06.2021 | 10:04 | 23.1 | 71 | 17.6 | 1013.3 | 3.2 | NNO | 575 | 0.0 |
| 27.06.2021 | 10:08 | 23.2 | 71 | 17.6 | 1013.2 | 4.7 | NNO | 650 | 0.0 |
| 27.06.2021 | 10:14 | 23.4 | 70 | 17.6 | 1013.3 | 6.5 | NO | 671 | 0.0 |
| 27.06.2021 | 10:18 | 23.6 | 70 | 17.8 | 1013.2 | 6.5 | NO | 671 | 0.0 |
| 27.06.2021 | 10:24 | 23.8 | 70 | 18.0 | 1013.3 | 3.2 | NNO | 654 | 0.0 |
| 27.06.2021 | 10:28 | 23.9 | 69 | 17.9 | 1013.2 | 1.4 | N | 638 | 0.0 |
| 27.06.2021 | 10:34 | 24.3 | 69 | 18.2 | 1013.2 | 3.2 | ONO | 768 | 0.0 |
| 27.06.2021 | 10:38 | 24.6 | 66 | 17.8 | 1013.1 | 3.2 | NNO | 701 | 0.0 |
| 27.06.2021 | 10:44 | 24.6 | 69 | 18.5 | 1013.1 | 3.2 | ONO | 543 | 0.0 |
| 27.06.2021 | 10:48 | 24.5 | 67 | 18.0 | 1013.1 | 1.4 | NO | 578 | 0.0 |
| 27.06.2021 | 10:54 | 24.6 | 68 | 18.3 | 1013.1 | 1.4 | ONO | 571 | 0.0 |
| 27.06.2021 | 10:58 | 24.8 | 67 | 18.3 | 1013.1 | 3.2 | NO | 793 | 0.0 |
| 27.06.2021 | 11:04 | 24.9 | 67 | 18.3 | 1013.1 | 3.2 | ONO | 777 | 0.0 |
| 27.06.2021 | 11:08 | 25.1 | 67 | 18.5 | 1013.1 | 4.7 | N | 780 | 0.0 |
| 27.06.2021 | 11:14 | 25.1 | 64 | 17.8 | 1013.1 | 3.2 | N | 795 | 0.0 |
| 27.06.2021 | 11:18 | 25.3 | 66 | 18.5 | 1013.1 | 3.2 | N | 766 | 0.0 |
| 27.06.2021 | 11:24 | 25.7 | 65 | 18.6 | 1013.0 | 1.4 | NO | 731 | 0.0 |
| 27.06.2021 | 11:28 | 25.7 | 64 | 18.4 | 1013.0 | 1.4 | NNO | 689 | 0.0 |
| 27.06.2021 | 11:34 | 26.0 | 63 | 18.4 | 1012.9 | 4.7 | ONO | 773 | 0.0 |
| 27.06.2021 | 11:38 | 26.2 | 63 | 18.6 | 1012.9 | 4.7 | NNO | 821 | 0.0 |
| 27.06.2021 | 11:44 | 26.1 | 64 | 18.8 | 1012.9 | 3.2 | N | 814 | 0.0 |
| 27.06.2021 | 11:48 | 26.4 | 61 | 18.3 | 1012.9 | 3.2 | N | 851 | 0.0 |
| 27.06.2021 | 11:54 | 26.2 | 67 | 19.6 | 1013.0 | 3.2 | N | 663 | 0.0 |
| 27.06.2021 | 11:58 | 26.6 | 64 | 19.2 | 1012.9 | 3.2 | NNW | 663 | 0.0 |
| 27.06.2021 | 12:04 | 26.7 | 61 | 18.6 | 1012.7 | 3.2 | ONO | 506 | 0.0 |
| 27.06.2021 | 12:08 | 26.5 | 62 | 18.6 | 1012.7 | 3.2 | NNO | 545 | 0.0 |
| 27.06.2021 | 12:14 | 26.7 | 64 | 19.3 | 1012.7 | 3.2 | O | 840 | 0.0 |
| 27.06.2021 | 12:18 | 26.7 | 63 | 19.1 | 1012.7 | 4.7 | ONO | 526 | 0.0 |
| 27.06.2021 | 12:24 | 26.8 | 63 | 19.2 | 1012.7 | 4.7 | NW | 587 | 0.0 |
| 27.06.2021 | 12:28 | 26.8 | 59 | 18.1 | 1012.7 | 4.7 | NO | 629 | 0.0 |
| 27.06.2021 | 12:34 | 26.9 | 61 | 18.7 | 1012.7 | 4.7 | NO | 506 | 0.0 |
| 27.06.2021 | 12:38 | 27.1 | 58 | 18.1 | 1012.6 | 6.5 | NO | 506 | 0.0 |
| 27.06.2021 | 12:44 | 27.2 | 61 | 19.0 | 1012.5 | 6.5 | NO | 643 | 0.0 |
| 27.06.2021 | 12:48 | 27.3 | 58 | 18.3 | 1012.5 | 6.5 | NO | 608 | 0.0 |
| 27.06.2021 | 12:54 | 27.5 | 59 | 18.8 | 1012.6 | 6.5 | NO | 761 | 0.0 |
| 27.06.2021 | 12:58 | 27.7 | 58 | 18.7 | 1012.6 | 7.9 | N | 986 | 0.0 |
| 27.06.2021 | 13:04 | 27.9 | 58 | 18.9 | 1012.5 | 9.7 | N | 932 | 0.0 |
| 27.06.2021 | 13:08 | 27.9 | 57 | 18.6 | 1012.5 | 6.5 | NO | 889 | 0.0 |
| 27.06.2021 | 13:14 | 28.3 | 56 | 18.7 | 1012.3 | 4.7 | NNW | 868 | 0.0 |
| 27.06.2021 | 13:18 | 28.3 | 55 | 18.4 | 1012.3 | 3.2 | N | 824 | 0.0 |
| 27.06.2021 | 13:24 | 28.4 | 55 | 18.5 | 1012.3 | 6.5 | OSO | 928 | 0.0 |
| 27.06.2021 | 13:28 | 28.6 | 55 | 18.7 | 1012.2 | 7.9 | NO | 960 | 0.0 |
| 27.06.2021 | 13:34 | 28.6 | 55 | 18.7 | 1012.2 | 9.7 | NO | 1030 | 0.0 |
| 27.06.2021 | 13:38 | 28.8 | 54 | 18.6 | 1012.2 | 7.9 | NO | 791 | 0.0 |
| 27.06.2021 | 13:44 | 28.4 | 54 | 18.2 | 1012.2 | 4.7 | NO | 650 | 0.0 |
| 27.06.2021 | 13:48 | 28.5 | 54 | 18.3 | 1012.2 | 6.5 | NNO | 761 | 0.0 |
| 27.06.2021 | 13:54 | 28.4 | 55 | 18.5 | 1012.2 | 7.9 | ONO | 638 | 0.0 |
| 27.06.2021 | 13:58 | 28.7 | 52 | 17.9 | 1012.2 | 7.9 | NNO | 868 | 0.0 |
| 27.06.2021 | 14:04 | 28.7 | 52 | 17.9 | 1012.1 | 6.5 | N | 854 | 0.0 |
| 27.06.2021 | 14:08 | 28.6 | 55 | 18.7 | 1012.0 | 7.9 | NO | 853 | 0.0 |
| 27.06.2021 | 14:14 | 28.7 | 53 | 18.2 | 1012.0 | 9.7 | ONO | 830 | 0.0 |
| 27.06.2021 | 14:18 | 29.0 | 53 | 18.5 | 1012.0 | 7.9 | NO | 601 | 0.0 |
| 27.06.2021 | 14:24 | 29.0 | 50 | 17.5 | 1011.8 | 4.7 | N | 860 | 0.0 |
| 27.06.2021 | 14:28 | 29.3 | 52 | 18.4 | 1011.8 | 4.7 | ONO | 893 | 0.0 |
| 27.06.2021 | 14:34 | 28.8 | 54 | 18.6 | 1011.7 | 3.2 | NNW | 893 | 0.0 |
| 27.06.2021 | 14:38 | 29.1 | 55 | 19.1 | 1011.6 | 3.2 | ONO | 898 | 0.0 |
| 27.06.2021 | 14:44 | 28.8 | 53 | 18.3 | 1011.5 | 6.5 | NNW | 526 | 0.0 |
| 27.06.2021 | 14:48 | 28.9 | 54 | 18.7 | 1011.6 | 6.5 | ONO | 526 | 0.0 |
| 27.06.2021 | 14:54 | 28.6 | 51 | 17.5 | 1011.6 | 3.2 | ONO | 436 | 0.0 |
| 27.06.2021 | 14:58 | 28.4 | 52 | 17.6 | 1011.6 | 4.7 | NNO | 473 | 0.0 |
| 27.06.2021 | 15:04 | 28.9 | 50 | 17.4 | 1011.6 | 4.7 | O | 473 | 0.0 |
| 27.06.2021 | 15:08 | 28.6 | 55 | 18.7 | 1011.6 | 4.7 | O | 464 | 0.0 |
| 27.06.2021 | 15:14 | 28.6 | 52 | 17.8 | 1011.7 | 3.2 | O | 603 | 0.0 |
| 27.06.2021 | 15:18 | 28.8 | 52 | 18.0 | 1011.7 | 1.4 | NNO | 499 | 0.0 |
| 27.06.2021 | 15:24 | 28.8 | 53 | 18.3 | 1011.7 | 3.2 | N | 512 | 0.0 |
| 27.06.2021 | 15:28 | 29.1 | 53 | 18.5 | 1011.6 | 4.7 | NO | 696 | 0.0 |
| 27.06.2021 | 15:34 | 28.7 | 53 | 18.2 | 1011.6 | 6.5 | NO | 388 | 0.0 |
| 27.06.2021 | 15:38 | 28.6 | 55 | 18.7 | 1011.5 | 4.7 | NNW | 388 | 0.0 |
| 27.06.2021 | 15:44 | 28.6 | 54 | 18.4 | 1011.5 | 3.2 | NNO | 483 | 0.0 |
| 27.06.2021 | 15:48 | 28.4 | 54 | 18.2 | 1011.5 | 4.7 | N | 343 | 0.0 |
| 27.06.2021 | 15:54 | 28.2 | 55 | 18.3 | 1011.6 | 3.2 | ONO | 287 | 0.0 |
| 27.06.2021 | 15:58 | 28.2 | 55 | 18.3 | 1011.5 | 1.4 | NNO | 267 | 0.0 |
| 27.06.2021 | 16:04 | 27.9 | 56 | 18.3 | 1011.5 | 0.0 | NO | 267 | 0.0 |
| 27.06.2021 | 16:08 | 27.8 | 55 | 17.9 | 1011.5 | 1.4 | N | 237 | 0.0 |
| 27.06.2021 | 16:14 | 27.6 | 58 | 18.6 | 1011.6 | 1.4 | NNW | 255 | 0.0 |
| 27.06.2021 | 16:18 | 27.5 | 59 | 18.8 | 1011.7 | 0.0 | NNW | 287 | 0.0 |
| 27.06.2021 | 16:24 | 27.4 | 59 | 18.7 | 1011.7 | 1.4 | NNW | 292 | 0.0 |
| 27.06.2021 | 16:28 | 27.4 | 59 | 18.7 | 1011.7 | 1.4 | NNW | 258 | 0.0 |
| 27.06.2021 | 16:34 | 27.3 | 60 | 18.9 | 1011.8 | 1.4 | NNW | 174 | 0.0 |
| 27.06.2021 | 16:38 | 27.2 | 61 | 19.0 | 1011.8 | 0.0 | O | 153 | 0.0 |
| 27.06.2021 | 16:44 | 26.8 | 63 | 19.2 | 1011.8 | 0.0 | WNW | 107 | 0.0 |
| 27.06.2021 | 16:48 | 26.6 | 63 | 19.0 | 1011.8 | 1.4 | WNW | 91 | 0.0 |
| 27.06.2021 | 16:54 | 26.1 | 64 | 18.8 | 1011.9 | 1.4 | W | 100 | 0.0 |
| 27.06.2021 | 16:58 | 26.0 | 66 | 19.2 | 1012.0 | 1.4 | NW | 135 | 0.0 |
| 27.06.2021 | 17:04 | 26.0 | 66 | 19.2 | 1011.9 | 1.4 | NNW | 204 | 0.0 |
| 27.06.2021 | 17:08 | 25.8 | 67 | 19.2 | 1011.9 | 1.4 | N | 199 | 0.0 |
| 27.06.2021 | 17:14 | 25.6 | 67 | 19.0 | 1012.0 | 1.4 | NNW | 188 | 0.0 |
| 27.06.2021 | 17:18 | 25.6 | 68 | 19.3 | 1012.0 | 1.4 | NW | 188 | 0.0 |
| 27.06.2021 | 17:24 | 25.6 | 70 | 19.7 | 1012.0 | 0.0 | NNW | 130 | 0.0 |
| 27.06.2021 | 17:28 | 25.6 | 68 | 19.3 | 1012.0 | 1.4 | N | 114 | 0.0 |
| 27.06.2021 | 17:34 | 25.6 | 68 | 19.3 | 1012.0 | 1.4 | NW | 127 | 0.0 |
| 27.06.2021 | 17:38 | 25.5 | 67 | 18.9 | 1012.0 | 3.2 | WNW | 118 | 0.0 |
| 27.06.2021 | 17:44 | 24.9 | 67 | 18.3 | 1012.0 | 6.5 | N | 123 | 0.0 |
| 27.06.2021 | 17:48 | 24.6 | 69 | 18.5 | 1012.1 | 7.9 | W | 134 | 0.0 |
| 27.06.2021 | 17:54 | 24.1 | 71 | 18.5 | 1012.1 | 6.5 | NNW | 118 | 0.0 |
| 27.06.2021 | 17:58 | 23.9 | 71 | 18.3 | 1012.1 | 6.5 | NNW | 118 | 0.0 |
| 27.06.2021 | 18:04 | 23.8 | 72 | 18.4 | 1012.1 | 4.7 | NNW | 139 | 0.0 |
| 27.06.2021 | 18:08 | 23.7 | 72 | 18.4 | 1012.1 | 4.7 | NNW | 121 | 0.0 |
| 27.06.2021 | 18:14 | 23.7 | 72 | 18.4 | 1012.0 | 4.7 | NNW | 135 | 0.0 |
| 27.06.2021 | 18:18 | 23.7 | 73 | 18.6 | 1012.0 | 3.2 | N | 134 | 0.0 |
| 27.06.2021 | 18:24 | 23.5 | 72 | 18.2 | 1011.9 | 3.2 | NNW | 90 | 0.0 |
| 27.06.2021 | 18:28 | 23.4 | 71 | 17.8 | 1011.8 | 4.7 | N | 74 | 0.0 |
| 27.06.2021 | 18:34 | 23.2 | 72 | 17.9 | 1012.0 | 4.7 | NNW | 79 | 0.0 |
| 27.06.2021 | 18:38 | 23.2 | 70 | 17.4 | 1011.9 | 3.2 | NW | 88 | 0.0 |
| 27.06.2021 | 18:44 | 23.2 | 71 | 17.6 | 1011.7 | 3.2 | N | 141 | 0.0 |
| 27.06.2021 | 18:48 | 23.3 | 71 | 17.7 | 1011.8 | 1.4 | NNO | 160 | 0.0 |
| 27.06.2021 | 18:54 | 23.2 | 71 | 17.6 | 1011.8 | 0.0 | NNO | 135 | 0.0 |
| 27.06.2021 | 18:58 | 23.1 | 72 | 17.8 | 1011.8 | 0.0 | N | 118 | 0.0 |
| 27.06.2021 | 19:04 | 22.9 | 73 | 17.8 | 1011.8 | 0.0 | NW | 74 | 0.0 |
| 27.06.2021 | 19:08 | 22.8 | 73 | 17.7 | 1011.8 | 0.0 | NW | 63 | 0.0 |
| 27.06.2021 | 19:14 | 22.7 | 74 | 17.8 | 1011.8 | 0.0 | NW | 76 | 0.0 |
| 27.06.2021 | 19:18 | 22.5 | 75 | 17.8 | 1011.8 | 0.0 | NW | 63 | 0.0 |
| 27.06.2021 | 19:24 | 22.6 | 75 | 17.9 | 1012.0 | 0.0 | NW | 44 | 0.0 |
| 27.06.2021 | 19:28 | 22.6 | 75 | 17.9 | 1011.9 | 0.0 | NW | 51 | 0.0 |
| 27.06.2021 | 19:34 | 22.5 | 75 | 17.8 | 1011.8 | 0.0 | NNW | 76 | 0.0 |
| 27.06.2021 | 19:38 | 22.4 | 77 | 18.2 | 1011.8 | 0.0 | NNW | 98 | 0.0 |
| 27.06.2021 | 19:44 | 22.4 | 76 | 18.0 | 1011.8 | 0.0 | NNW | 104 | 0.0 |
| 27.06.2021 | 19:48 | 22.5 | 75 | 17.8 | 1012.0 | 0.0 | NNW | 104 | 0.0 |
| 27.06.2021 | 19:54 | 22.7 | 77 | 18.5 | 1012.0 | 0.0 | S | 113 | 0.0 |
| 27.06.2021 | 19:58 | 22.7 | 75 | 18.0 | 1011.9 | 0.0 | S | 114 | 0.0 |
| 27.06.2021 | 20:04 | 22.8 | 76 | 18.3 | 1011.9 | 0.0 | S | 144 | 0.0 |
| 27.06.2021 | 20:08 | 22.9 | 76 | 18.4 | 1011.9 | 0.0 | S | 146 | 0.0 |
| 27.06.2021 | 20:14 | 22.9 | 75 | 18.2 | 1011.8 | 0.0 | SSW | 135 | 0.0 |
| 27.06.2021 | 20:18 | 22.9 | 74 | 18.0 | 1011.8 | 0.0 | SSW | 100 | 0.0 |
| 27.06.2021 | 20:24 | 22.9 | 75 | 18.2 | 1012.0 | 0.0 | SSW | 93 | 0.0 |
| 27.06.2021 | 20:28 | 22.8 | 77 | 18.6 | 1012.0 | 0.0 | SSW | 70 | 0.0 |
| 27.06.2021 | 20:34 | 22.7 | 77 | 18.5 | 1012.1 | 0.0 | SSW | 65 | 0.0 |
| 27.06.2021 | 20:38 | 22.7 | 78 | 18.7 | 1012.1 | 0.0 | SSW | 62 | 0.0 |
| 27.06.2021 | 20:44 | 22.4 | 79 | 18.6 | 1012.1 | 0.0 | SW | 51 | 0.0 |
| 27.06.2021 | 20:48 | 22.3 | 79 | 18.5 | 1012.0 | 0.0 | SW | 51 | 0.0 |
| 27.06.2021 | 20:54 | 22.3 | 79 | 18.5 | 1012.2 | 0.0 | SW | 37 | 0.0 |
| 27.06.2021 | 20:58 | 22.3 | 79 | 18.5 | 1012.3 | 0.0 | SW | 33 | 0.0 |
| 27.06.2021 | 21:04 | 22.2 | 80 | 18.6 | 1012.4 | 0.0 | SW | 26 | 0.0 |
| 27.06.2021 | 21:08 | 22.1 | 81 | 18.7 | 1012.4 | 0.0 | SW | 21 | 0.0 |
| 27.06.2021 | 21:14 | 22.0 | 81 | 18.6 | 1012.4 | 0.0 | SW | 14 | 0.0 |
| 27.06.2021 | 21:18 | 22.0 | 81 | 18.6 | 1012.4 | 0.0 | SW | 11 | 0.0 |
| 27.06.2021 | 21:24 | 21.8 | 81 | 18.4 | 1012.5 | 0.0 | SW | 7 | 0.0 |
| 27.06.2021 | 21:28 | 21.9 | 80 | 18.3 | 1012.4 | 0.0 | SW | 5 | 0.0 |
| 27.06.2021 | 21:34 | 21.9 | 81 | 18.5 | 1012.4 | 0.0 | SW | 0 | 0.0 |
| 27.06.2021 | 21:38 | 21.8 | 82 | 18.6 | 1012.3 | 0.0 | SW | 0 | 0.0 |
| 27.06.2021 | 21:44 | 21.7 | 84 | 18.9 | 1012.3 | 0.0 | SW | 0 | 0.0 |
| 27.06.2021 | 21:48 | 21.4 | 85 | 18.8 | 1012.4 | 0.0 | SW | 0 | 0.0 |
| 27.06.2021 | 21:54 | 21.1 | 86 | 18.7 | 1012.5 | 0.0 | SW | 0 | 0.0 |
| 27.06.2021 | 21:58 | 20.9 | 86 | 18.5 | 1012.5 | 0.0 | SW | 0 | 0.0 |
| 27.06.2021 | 22:04 | 20.8 | 87 | 18.6 | 1012.6 | 0.0 | SW | 0 | 0.0 |
| 27.06.2021 | 22:08 | 20.6 | 88 | 18.5 | 1012.6 | 0.0 | SW | 0 | 0.0 |
| 27.06.2021 | 22:14 | 20.3 | 89 | 18.4 | 1012.5 | 0.0 | SW | 0 | 0.0 |
| 27.06.2021 | 22:18 | 20.3 | 89 | 18.4 | 1012.5 | 0.0 | SW | 0 | 0.0 |
| 27.06.2021 | 22:24 | 20.1 | 89 | 18.2 | 1012.4 | 0.0 | SW | 0 | 0.0 |
| 27.06.2021 | 22:28 | 19.9 | 90 | 18.2 | 1012.4 | 0.0 | SW | 0 | 0.0 |
| 27.06.2021 | 22:34 | 19.9 | 90 | 18.2 | 1012.4 | 0.0 | SW | 0 | 0.0 |
| 27.06.2021 | 22:38 | 19.9 | 90 | 18.2 | 1012.3 | 0.0 | SW | 0 | 0.0 |
| 27.06.2021 | 22:44 | 19.8 | 91 | 18.3 | 1012.4 | 0.0 | SW | 0 | 0.0 |
| 27.06.2021 | 22:48 | 19.7 | 91 | 18.2 | 1012.4 | 0.0 | SW | 0 | 0.0 |
| 27.06.2021 | 22:54 | 19.6 | 91 | 18.1 | 1012.3 | 0.0 | SW | 0 | 0.0 |
| 27.06.2021 | 22:58 | 19.4 | 91 | 17.9 | 1012.3 | 0.0 | SW | 0 | 0.0 |
| 27.06.2021 | 23:04 | 19.2 | 92 | 17.9 | 1012.3 | 0.0 | SW | 0 | 0.0 |
| 27.06.2021 | 23:08 | 19.1 | 92 | 17.8 | 1012.3 | 0.0 | SW | 0 | 0.0 |
| 27.06.2021 | 23:14 | 19.1 | 92 | 17.8 | 1012.2 | 0.0 | SW | 0 | 0.0 |
| 27.06.2021 | 23:18 | 19.2 | 92 | 17.9 | 1012.3 | 0.0 | SW | 0 | 0.0 |
| 27.06.2021 | 23:24 | 19.2 | 92 | 17.9 | 1012.4 | 0.0 | SW | 0 | 0.0 |
| 27.06.2021 | 23:28 | 19.3 | 92 | 18.0 | 1012.4 | 0.0 | SW | 0 | 0.0 |
| 27.06.2021 | 23:34 | 19.3 | 92 | 18.0 | 1012.5 | 0.0 | WNW | 0 | 0.0 |
| 27.06.2021 | 23:38 | 19.3 | 91 | 17.8 | 1012.6 | 0.0 | WNW | 0 | 0.0 |
| 27.06.2021 | 23:44 | 19.3 | 92 | 18.0 | 1012.8 | 0.0 | WNW | 0 | 0.0 |
| 27.06.2021 | 23:48 | 19.3 | 92 | 18.0 | 1012.8 | 0.0 | WNW | 0 | 0.0 |
| 27.06.2021 | 23:54 | 19.3 | 91 | 17.8 | 1012.9 | 0.0 | WNW | 0 | 0.0 |
| 27.06.2021 | 23:58 | 19.3 | 92 | 18.0 | 1012.9 | 0.0 | WNW | 0 | 0.0 |